sensor_id;sensor_type;location;lat;lon;timestamp;temperature;humidity
2409;DHT22;8463;48.094;7.970;2023-08-21T00:03:11;24.80;1.00
2409;DHT22;8463;48.094;7.970;2023-08-21T00:05:42;24.60;1.00
2409;DHT22;8463;48.094;7.970;2023-08-21T00:10:39;24.60;1.00
2409;DHT22;8463;48.094;7.970;2023-08-21T00:13:06;24.50;1.00
2409;DHT22;8463;48.094;7.970;2023-08-21T00:15:32;24.50;1.00
2409;DHT22;8463;48.094;7.970;2023-08-21T00:17:58;24.40;1.00
2409;DHT22;8463;48.094;7.970;2023-08-21T00:20:24;24.40;1.00
2409;DHT22;8463;48.094;7.970;2023-08-21T00:22:49;24.30;1.00
2409;DHT22;8463;48.094;7.970;2023-08-21T00:25:16;24.40;1.00
2409;DHT22;8463;48.094;7.970;2023-08-21T00:30:08;24.40;1.00
2409;DHT22;8463;48.094;7.970;2023-08-21T00:32:34;24.40;1.00
2409;DHT22;8463;48.094;7.970;2023-08-21T00:35:00;24.30;1.00
2409;DHT22;8463;48.094;7.970;2023-08-21T00:37:28;24.20;1.00
2409;DHT22;8463;48.094;7.970;2023-08-21T00:39:56;24.10;1.00
2409;DHT22;8463;48.094;7.970;2023-08-21T00:42:21;24.00;1.00
2409;DHT22;8463;48.094;7.970;2023-08-21T00:44:52;23.90;1.00
2409;DHT22;8463;48.094;7.970;2023-08-21T00:47:18;23.90;1.00
2409;DHT22;8463;48.094;7.970;2023-08-21T00:49:50;23.90;1.00
2409;DHT22;8463;48.094;7.970;2023-08-21T00:52:17;23.90;1.00
2409;DHT22;8463;48.094;7.970;2023-08-21T00:54:43;24.00;1.00
2409;DHT22;8463;48.094;7.970;2023-08-21T00:57:10;24.00;1.00
2409;DHT22;8463;48.094;7.970;2023-08-21T00:59:37;24.00;1.00
2409;DHT22;8463;48.094;7.970;2023-08-21T01:02:03;24.00;1.00
2409;DHT22;8463;48.094;7.970;2023-08-21T01:04:29;24.00;1.00
2409;DHT22;8463;48.094;7.970;2023-08-21T01:06:54;24.00;1.00
2409;DHT22;8463;48.094;7.970;2023-08-21T01:09:35;23.90;1.00
2409;DHT22;8463;48.094;7.970;2023-08-21T01:12:07;24.00;1.00
2409;DHT22;8463;48.094;7.970;2023-08-21T01:14:59;24.00;1.00
2409;DHT22;8463;48.094;7.970;2023-08-21T01:17:28;24.00;1.00
2409;DHT22;8463;48.094;7.970;2023-08-21T01:19:54;24.00;1.00
2409;DHT22;8463;48.094;7.970;2023-08-21T01:22:27;24.00;1.00
2409;DHT22;8463;48.094;7.970;2023-08-21T01:24:54;24.00;1.00
2409;DHT22;8463;48.094;7.970;2023-08-21T01:27:20;24.00;1.00
2409;DHT22;8463;48.094;7.970;2023-08-21T01:29:47;24.00;1.00
2409;DHT22;8463;48.094;7.970;2023-08-21T01:32:53;24.00;1.00
2409;DHT22;8463;48.094;7.970;2023-08-21T01:35:22;23.90;1.00
2409;DHT22;8463;48.094;7.970;2023-08-21T01:37:49;23.90;1.00
2409;DHT22;8463;48.094;7.970;2023-08-21T01:40:25;23.90;1.00
2409;DHT22;8463;48.094;7.970;2023-08-21T01:42:54;23.80;1.00
2409;DHT22;8463;48.094;7.970;2023-08-21T01:45:20;23.80;1.00
2409;DHT22;8463;48.094;7.970;2023-08-21T01:47:46;23.70;1.00
2409;DHT22;8463;48.094;7.970;2023-08-21T01:50:14;23.70;1.00
2409;DHT22;8463;48.094;7.970;2023-08-21T01:52:42;23.70;1.00
2409;DHT22;8463;48.094;7.970;2023-08-21T01:55:07;23.60;1.00
2409;DHT22;8463;48.094;7.970;2023-08-21T02:00:08;23.70;1.00
2409;DHT22;8463;48.094;7.970;2023-08-21T02:02:33;23.70;1.00
2409;DHT22;8463;48.094;7.970;2023-08-21T02:05:02;23.70;1.00
2409;DHT22;8463;48.094;7.970;2023-08-21T02:07:29;23.70;1.00
2409;DHT22;8463;48.094;7.970;2023-08-21T02:09:55;23.70;1.00
2409;DHT22;8463;48.094;7.970;2023-08-21T02:12:21;23.70;1.00
2409;DHT22;8463;48.094;7.970;2023-08-21T02:14:46;23.70;1.00
2409;DHT22;8463;48.094;7.970;2023-08-21T02:17:14;23.70;1.00
2409;DHT22;8463;48.094;7.970;2023-08-21T02:19:39;23.70;1.00
2409;DHT22;8463;48.094;7.970;2023-08-21T02:22:06;23.70;1.00
2409;DHT22;8463;48.094;7.970;2023-08-21T02:24:31;23.70;1.00
2409;DHT22;8463;48.094;7.970;2023-08-21T02:31:49;23.70;1.00
2409;DHT22;8463;48.094;7.970;2023-08-21T02:34:15;23.70;1.00
2409;DHT22;8463;48.094;7.970;2023-08-21T02:36:40;23.70;1.00
2409;DHT22;8463;48.094;7.970;2023-08-21T02:39:06;23.70;1.00
2409;DHT22;8463;48.094;7.970;2023-08-21T02:41:31;23.70;1.00
2409;DHT22;8463;48.094;7.970;2023-08-21T02:43:58;23.70;1.00
2409;DHT22;8463;48.094;7.970;2023-08-21T02:46:23;23.80;1.00
2409;DHT22;8463;48.094;7.970;2023-08-21T02:48:49;23.80;1.00
2409;DHT22;8463;48.094;7.970;2023-08-21T02:51:15;23.80;1.00
2409;DHT22;8463;48.094;7.970;2023-08-21T02:53:42;23.80;1.00
2409;DHT22;8463;48.094;7.970;2023-08-21T02:56:08;23.90;1.00
2409;DHT22;8463;48.094;7.970;2023-08-21T02:58:34;23.90;1.00
2409;DHT22;8463;48.094;7.970;2023-08-21T03:01:05;24.00;1.00
2409;DHT22;8463;48.094;7.970;2023-08-21T03:03:34;23.90;1.00
2409;DHT22;8463;48.094;7.970;2023-08-21T03:06:03;23.80;1.00
2409;DHT22;8463;48.094;7.970;2023-08-21T03:08:28;23.80;1.00
2409;DHT22;8463;48.094;7.970;2023-08-21T03:10:56;23.80;1.00
2409;DHT22;8463;48.094;7.970;2023-08-21T03:13:26;23.70;1.00
2409;DHT22;8463;48.094;7.970;2023-08-21T03:15:52;23.80;1.00
2409;DHT22;8463;48.094;7.970;2023-08-21T03:18:19;23.80;1.00
2409;DHT22;8463;48.094;7.970;2023-08-21T03:20:45;23.80;1.00
2409;DHT22;8463;48.094;7.970;2023-08-21T03:23:14;23.90;1.00
2409;DHT22;8463;48.094;7.970;2023-08-21T03:28:05;23.90;1.00
2409;DHT22;8463;48.094;7.970;2023-08-21T03:30:31;23.90;1.00
2409;DHT22;8463;48.094;7.970;2023-08-21T03:32:57;23.90;1.00
2409;DHT22;8463;48.094;7.970;2023-08-21T03:35:22;23.80;1.00
2409;DHT22;8463;48.094;7.970;2023-08-21T03:37:48;23.70;1.00
2409;DHT22;8463;48.094;7.970;2023-08-21T03:40:14;23.60;1.00
2409;DHT22;8463;48.094;7.970;2023-08-21T03:42:39;23.60;1.00
2409;DHT22;8463;48.094;7.970;2023-08-21T03:45:07;23.50;1.00
2409;DHT22;8463;48.094;7.970;2023-08-21T03:47:34;23.50;1.00
2409;DHT22;8463;48.094;7.970;2023-08-21T03:50:00;23.40;1.00
2409;DHT22;8463;48.094;7.970;2023-08-21T03:52:26;23.50;1.00
2409;DHT22;8463;48.094;7.970;2023-08-21T03:54:52;23.50;1.00
2409;DHT22;8463;48.094;7.970;2023-08-21T03:57:18;23.50;1.00
2409;DHT22;8463;48.094;7.970;2023-08-21T03:59:44;23.50;1.00
2409;DHT22;8463;48.094;7.970;2023-08-21T04:04:39;23.50;1.00
2409;DHT22;8463;48.094;7.970;2023-08-21T04:09:31;23.40;1.00
2409;DHT22;8463;48.094;7.970;2023-08-21T04:11:57;23.50;1.00
2409;DHT22;8463;48.094;7.970;2023-08-21T04:14:22;23.50;1.00
2409;DHT22;8463;48.094;7.970;2023-08-21T04:16:48;23.50;1.00
2409;DHT22;8463;48.094;7.970;2023-08-21T04:19:16;23.50;1.00
2409;DHT22;8463;48.094;7.970;2023-08-21T04:21:47;23.50;1.00
2409;DHT22;8463;48.094;7.970;2023-08-21T04:24:13;23.50;1.00
2409;DHT22;8463;48.094;7.970;2023-08-21T04:26:39;23.50;1.00
2409;DHT22;8463;48.094;7.970;2023-08-21T04:31:31;23.50;1.00
2409;DHT22;8463;48.094;7.970;2023-08-21T04:33:57;23.50;1.00
2409;DHT22;8463;48.094;7.970;2023-08-21T04:38:48;23.40;1.00
2409;DHT22;8463;48.094;7.970;2023-08-21T04:41:14;23.50;1.00
2409;DHT22;8463;48.094;7.970;2023-08-21T04:43:49;23.40;1.00
2409;DHT22;8463;48.094;7.970;2023-08-21T04:46:15;23.40;1.00
2409;DHT22;8463;48.094;7.970;2023-08-21T04:48:46;23.40;1.00
2409;DHT22;8463;48.094;7.970;2023-08-21T04:51:12;23.50;1.00
2409;DHT22;8463;48.094;7.970;2023-08-21T04:53:40;23.50;1.00
2409;DHT22;8463;48.094;7.970;2023-08-21T04:56:05;23.50;1.00
2409;DHT22;8463;48.094;7.970;2023-08-21T04:58:32;23.40;1.00
2409;DHT22;8463;48.094;7.970;2023-08-21T05:00:58;23.40;1.00
2409;DHT22;8463;48.094;7.970;2023-08-21T05:03:24;23.40;1.00
2409;DHT22;8463;48.094;7.970;2023-08-21T05:05:54;23.40;1.00
2409;DHT22;8463;48.094;7.970;2023-08-21T05:08:24;23.40;1.00
2409;DHT22;8463;48.094;7.970;2023-08-21T05:11:00;23.40;1.00
2409;DHT22;8463;48.094;7.970;2023-08-21T05:13:26;23.40;1.00
2409;DHT22;8463;48.094;7.970;2023-08-21T05:15:57;23.40;1.00
2409;DHT22;8463;48.094;7.970;2023-08-21T05:18:24;23.50;1.00
2409;DHT22;8463;48.094;7.970;2023-08-21T05:20:56;23.50;1.00
2409;DHT22;8463;48.094;7.970;2023-08-21T05:23:22;23.50;1.00
2409;DHT22;8463;48.094;7.970;2023-08-21T05:25:48;23.60;1.00
2409;DHT22;8463;48.094;7.970;2023-08-21T05:28:14;23.60;1.00
2409;DHT22;8463;48.094;7.970;2023-08-21T05:30:40;23.60;1.00
2409;DHT22;8463;48.094;7.970;2023-08-21T05:33:12;23.60;1.00
2409;DHT22;8463;48.094;7.970;2023-08-21T05:35:37;23.70;1.00
2409;DHT22;8463;48.094;7.970;2023-08-21T05:38:03;23.70;1.00
2409;DHT22;8463;48.094;7.970;2023-08-21T05:40:29;23.80;1.00
2409;DHT22;8463;48.094;7.970;2023-08-21T05:42:57;23.90;1.00
2409;DHT22;8463;48.094;7.970;2023-08-21T05:45:23;23.90;1.00
2409;DHT22;8463;48.094;7.970;2023-08-21T05:47:49;23.90;1.00
2409;DHT22;8463;48.094;7.970;2023-08-21T05:50:17;24.00;1.00
2409;DHT22;8463;48.094;7.970;2023-08-21T05:52:45;24.10;1.00
2409;DHT22;8463;48.094;7.970;2023-08-21T05:55:11;24.20;1.00
2409;DHT22;8463;48.094;7.970;2023-08-21T05:57:37;24.40;1.00
2409;DHT22;8463;48.094;7.970;2023-08-21T06:00:09;24.60;1.00
2409;DHT22;8463;48.094;7.970;2023-08-21T06:02:35;24.70;1.00
2409;DHT22;8463;48.094;7.970;2023-08-21T06:05:03;24.80;1.00
2409;DHT22;8463;48.094;7.970;2023-08-21T06:07:30;24.90;1.00
2409;DHT22;8463;48.094;7.970;2023-08-21T06:09:57;25.00;1.00
2409;DHT22;8463;48.094;7.970;2023-08-21T06:12:23;25.10;1.00
2409;DHT22;8463;48.094;7.970;2023-08-21T06:14:49;25.40;1.00
2409;DHT22;8463;48.094;7.970;2023-08-21T06:17:14;25.50;1.00
2409;DHT22;8463;48.094;7.970;2023-08-21T06:19:42;25.70;1.00
2409;DHT22;8463;48.094;7.970;2023-08-21T06:22:08;25.80;1.00
2409;DHT22;8463;48.094;7.970;2023-08-21T06:24:33;25.90;1.00
2409;DHT22;8463;48.094;7.970;2023-08-21T06:29:25;26.10;1.00
2409;DHT22;8463;48.094;7.970;2023-08-21T06:31:53;26.20;1.00
2409;DHT22;8463;48.094;7.970;2023-08-21T06:34:22;26.40;1.00
2409;DHT22;8463;48.094;7.970;2023-08-21T06:36:50;26.50;1.00
2409;DHT22;8463;48.094;7.970;2023-08-21T06:44:10;26.80;1.00
2409;DHT22;8463;48.094;7.970;2023-08-21T06:46:36;26.70;1.00
2409;DHT22;8463;48.094;7.970;2023-08-21T06:49:02;26.80;1.00
2409;DHT22;8463;48.094;7.970;2023-08-21T06:51:30;26.80;1.00
2409;DHT22;8463;48.094;7.970;2023-08-21T06:53:56;27.00;1.00
2409;DHT22;8463;48.094;7.970;2023-08-21T06:56:22;27.00;1.00
2409;DHT22;8463;48.094;7.970;2023-08-21T06:58:49;26.60;1.00
2409;DHT22;8463;48.094;7.970;2023-08-21T07:01:15;26.60;1.00
2409;DHT22;8463;48.094;7.970;2023-08-21T07:03:42;26.50;1.00
2409;DHT22;8463;48.094;7.970;2023-08-21T07:06:08;26.50;1.00
2409;DHT22;8463;48.094;7.970;2023-08-21T07:08:34;26.60;1.00
2409;DHT22;8463;48.094;7.970;2023-08-21T07:11:02;26.80;1.00
2409;DHT22;8463;48.094;7.970;2023-08-21T07:13:29;27.00;1.00
2409;DHT22;8463;48.094;7.970;2023-08-21T07:15:55;27.20;1.00
2409;DHT22;8463;48.094;7.970;2023-08-21T07:18:21;27.20;1.00
2409;DHT22;8463;48.094;7.970;2023-08-21T07:20:49;27.40;1.00
2409;DHT22;8463;48.094;7.970;2023-08-21T07:23:16;27.60;1.00
2409;DHT22;8463;48.094;7.970;2023-08-21T07:25:42;27.60;1.00
2409;DHT22;8463;48.094;7.970;2023-08-21T07:28:10;27.70;1.00
2409;DHT22;8463;48.094;7.970;2023-08-21T07:30:37;27.50;1.00
2409;DHT22;8463;48.094;7.970;2023-08-21T07:33:04;27.40;1.00
2409;DHT22;8463;48.094;7.970;2023-08-21T07:35:30;27.50;1.00
2409;DHT22;8463;48.094;7.970;2023-08-21T07:37:56;27.60;1.00
2409;DHT22;8463;48.094;7.970;2023-08-21T07:40:21;27.10;1.00
2409;DHT22;8463;48.094;7.970;2023-08-21T07:42:47;26.80;1.00
2409;DHT22;8463;48.094;7.970;2023-08-21T07:45:13;26.70;1.00
2409;DHT22;8463;48.094;7.970;2023-08-21T07:47:38;26.60;1.00
2409;DHT22;8463;48.094;7.970;2023-08-21T07:50:06;26.60;1.00
2409;DHT22;8463;48.094;7.970;2023-08-21T07:52:36;26.70;1.00
2409;DHT22;8463;48.094;7.970;2023-08-21T07:55:04;26.90;1.00
2409;DHT22;8463;48.094;7.970;2023-08-21T07:57:29;26.90;1.00
2409;DHT22;8463;48.094;7.970;2023-08-21T07:59:56;26.80;1.00
2409;DHT22;8463;48.094;7.970;2023-08-21T08:02:22;26.90;1.00
2409;DHT22;8463;48.094;7.970;2023-08-21T08:04:48;27.00;1.00
2409;DHT22;8463;48.094;7.970;2023-08-21T08:07:20;27.00;1.00
2409;DHT22;8463;48.094;7.970;2023-08-21T08:09:45;26.90;1.00
2409;DHT22;8463;48.094;7.970;2023-08-21T08:14:39;27.30;1.00
2409;DHT22;8463;48.094;7.970;2023-08-21T08:19:34;27.30;1.00
2409;DHT22;8463;48.094;7.970;2023-08-21T08:21:59;27.20;1.00
2409;DHT22;8463;48.094;7.970;2023-08-21T08:24:25;27.30;1.00
2409;DHT22;8463;48.094;7.970;2023-08-21T08:26:50;27.30;1.00
2409;DHT22;8463;48.094;7.970;2023-08-21T08:29:16;27.40;1.00
2409;DHT22;8463;48.094;7.970;2023-08-21T08:31:49;27.50;1.00
2409;DHT22;8463;48.094;7.970;2023-08-21T08:34:14;27.60;1.00
2409;DHT22;8463;48.094;7.970;2023-08-21T08:36:46;27.70;1.00
2409;DHT22;8463;48.094;7.970;2023-08-21T08:39:12;27.80;1.00
2409;DHT22;8463;48.094;7.970;2023-08-21T08:41:54;27.80;1.00
2409;DHT22;8463;48.094;7.970;2023-08-21T08:44:24;27.90;1.00
2409;DHT22;8463;48.094;7.970;2023-08-21T08:46:52;27.90;1.00
2409;DHT22;8463;48.094;7.970;2023-08-21T08:49:20;28.20;1.00
2409;DHT22;8463;48.094;7.970;2023-08-21T08:51:46;28.20;1.00
2409;DHT22;8463;48.094;7.970;2023-08-21T08:54:16;28.30;1.00
2409;DHT22;8463;48.094;7.970;2023-08-21T08:56:42;28.40;1.00
2409;DHT22;8463;48.094;7.970;2023-08-21T08:59:08;28.50;1.00
2409;DHT22;8463;48.094;7.970;2023-08-21T09:01:36;28.50;1.00
2409;DHT22;8463;48.094;7.970;2023-08-21T09:04:03;28.60;1.00
2409;DHT22;8463;48.094;7.970;2023-08-21T09:06:29;28.60;1.00
2409;DHT22;8463;48.094;7.970;2023-08-21T09:08:56;28.50;1.00
2409;DHT22;8463;48.094;7.970;2023-08-21T09:11:28;28.90;1.00
2409;DHT22;8463;48.094;7.970;2023-08-21T09:13:54;28.80;1.00
2409;DHT22;8463;48.094;7.970;2023-08-21T09:16:22;28.80;1.00
2409;DHT22;8463;48.094;7.970;2023-08-21T09:18:53;28.90;1.00
2409;DHT22;8463;48.094;7.970;2023-08-21T09:21:23;28.90;1.00
2409;DHT22;8463;48.094;7.970;2023-08-21T09:23:56;28.90;1.00
2409;DHT22;8463;48.094;7.970;2023-08-21T09:26:23;28.90;1.00
2409;DHT22;8463;48.094;7.970;2023-08-21T09:28:50;28.90;1.00
2409;DHT22;8463;48.094;7.970;2023-08-21T09:31:21;29.00;1.00
2409;DHT22;8463;48.094;7.970;2023-08-21T09:33:58;29.30;1.00
2409;DHT22;8463;48.094;7.970;2023-08-21T09:36:26;29.30;1.00
2409;DHT22;8463;48.094;7.970;2023-08-21T09:38:51;29.40;1.00
2409;DHT22;8463;48.094;7.970;2023-08-21T09:41:21;29.50;1.00
2409;DHT22;8463;48.094;7.970;2023-08-21T09:43:47;29.50;1.00
2409;DHT22;8463;48.094;7.970;2023-08-21T09:46:26;29.60;1.00
2409;DHT22;8463;48.094;7.970;2023-08-21T09:48:52;29.60;1.00
2409;DHT22;8463;48.094;7.970;2023-08-21T09:51:18;29.60;1.00
2409;DHT22;8463;48.094;7.970;2023-08-21T09:53:44;29.70;1.00
2409;DHT22;8463;48.094;7.970;2023-08-21T09:56:12;29.70;1.00
2409;DHT22;8463;48.094;7.970;2023-08-21T09:58:38;29.70;1.00
2409;DHT22;8463;48.094;7.970;2023-08-21T10:01:07;29.80;1.00
2409;DHT22;8463;48.094;7.970;2023-08-21T10:03:39;30.10;1.00
2409;DHT22;8463;48.094;7.970;2023-08-21T10:06:07;30.20;1.00
2409;DHT22;8463;48.094;7.970;2023-08-21T10:08:38;30.30;1.00
2409;DHT22;8463;48.094;7.970;2023-08-21T10:11:07;30.40;1.00
2409;DHT22;8463;48.094;7.970;2023-08-21T10:13:37;30.60;1.00
2409;DHT22;8463;48.094;7.970;2023-08-21T10:16:06;30.50;1.00
2409;DHT22;8463;48.094;7.970;2023-08-21T10:18:36;30.40;1.00
2409;DHT22;8463;48.094;7.970;2023-08-21T10:21:22;30.40;1.00
2409;DHT22;8463;48.094;7.970;2023-08-21T10:24:00;30.80;1.00
2409;DHT22;8463;48.094;7.970;2023-08-21T10:26:26;30.90;1.00
2409;DHT22;8463;48.094;7.970;2023-08-21T10:31:36;31.20;1.00
2409;DHT22;8463;48.094;7.970;2023-08-21T10:34:04;31.20;1.00
2409;DHT22;8463;48.094;7.970;2023-08-21T10:39:16;31.60;1.00
2409;DHT22;8463;48.094;7.970;2023-08-21T10:42:11;31.60;1.00
2409;DHT22;8463;48.094;7.970;2023-08-21T10:49:56;31.70;1.00
2409;DHT22;8463;48.094;7.970;2023-08-21T10:52:26;31.60;1.00
2409;DHT22;8463;48.094;7.970;2023-08-21T10:54:59;31.70;1.00
2409;DHT22;8463;48.094;7.970;2023-08-21T10:57:27;31.80;1.00
2409;DHT22;8463;48.094;7.970;2023-08-21T11:00:11;31.80;1.00
2409;DHT22;8463;48.094;7.970;2023-08-21T11:02:40;31.80;1.00
2409;DHT22;8463;48.094;7.970;2023-08-21T11:05:07;31.70;1.00
2409;DHT22;8463;48.094;7.970;2023-08-21T11:07:40;31.80;1.00
2409;DHT22;8463;48.094;7.970;2023-08-21T11:10:16;32.00;1.00
2409;DHT22;8463;48.094;7.970;2023-08-21T11:12:53;32.00;1.00
2409;DHT22;8463;48.094;7.970;2023-08-21T11:15:21;32.00;1.00
2409;DHT22;8463;48.094;7.970;2023-08-21T11:18:05;32.10;1.00
2409;DHT22;8463;48.094;7.970;2023-08-21T11:20:35;32.20;1.00
2409;DHT22;8463;48.094;7.970;2023-08-21T11:23:05;32.50;1.00
2409;DHT22;8463;48.094;7.970;2023-08-21T11:25:34;32.70;1.00
2409;DHT22;8463;48.094;7.970;2023-08-21T11:28:03;32.70;1.00
2409;DHT22;8463;48.094;7.970;2023-08-21T11:30:31;32.70;1.00
2409;DHT22;8463;48.094;7.970;2023-08-21T11:33:11;32.60;1.00
2409;DHT22;8463;48.094;7.970;2023-08-21T11:35:40;32.60;1.00
2409;DHT22;8463;48.094;7.970;2023-08-21T11:38:06;32.50;1.00
2409;DHT22;8463;48.094;7.970;2023-08-21T11:40:35;32.40;1.00
2409;DHT22;8463;48.094;7.970;2023-08-21T11:43:01;32.70;1.00
2409;DHT22;8463;48.094;7.970;2023-08-21T11:45:31;33.00;1.00
2409;DHT22;8463;48.094;7.970;2023-08-21T11:47:59;33.10;1.00
2409;DHT22;8463;48.094;7.970;2023-08-21T11:50:25;33.10;1.00
2409;DHT22;8463;48.094;7.970;2023-08-21T11:52:55;33.00;1.00
2409;DHT22;8463;48.094;7.970;2023-08-21T11:55:20;33.20;1.00
2409;DHT22;8463;48.094;7.970;2023-08-21T11:57:51;33.40;1.00
2409;DHT22;8463;48.094;7.970;2023-08-21T12:00:18;33.40;1.00
2409;DHT22;8463;48.094;7.970;2023-08-21T12:02:55;33.60;1.00
2409;DHT22;8463;48.094;7.970;2023-08-21T12:05:26;33.60;1.00
2409;DHT22;8463;48.094;7.970;2023-08-21T12:07:52;33.80;1.00
2409;DHT22;8463;48.094;7.970;2023-08-21T12:10:29;33.70;1.00
2409;DHT22;8463;48.094;7.970;2023-08-21T12:12:55;33.80;1.00
2409;DHT22;8463;48.094;7.970;2023-08-21T12:15:21;33.60;1.00
2409;DHT22;8463;48.094;7.970;2023-08-21T12:17:47;33.70;1.00
2409;DHT22;8463;48.094;7.970;2023-08-21T12:20:12;33.40;1.00
2409;DHT22;8463;48.094;7.970;2023-08-21T12:22:42;33.40;1.00
2409;DHT22;8463;48.094;7.970;2023-08-21T12:25:08;33.50;1.00
2409;DHT22;8463;48.094;7.970;2023-08-21T12:27:35;33.90;1.00
2409;DHT22;8463;48.094;7.970;2023-08-21T12:30:01;34.00;1.00
2409;DHT22;8463;48.094;7.970;2023-08-21T12:32:26;33.80;1.00
2409;DHT22;8463;48.094;7.970;2023-08-21T12:34:52;33.90;1.00
2409;DHT22;8463;48.094;7.970;2023-08-21T12:37:18;33.90;1.00
2409;DHT22;8463;48.094;7.970;2023-08-21T12:39:45;33.70;1.00
2409;DHT22;8463;48.094;7.970;2023-08-21T12:42:10;33.40;1.00
2409;DHT22;8463;48.094;7.970;2023-08-21T12:44:39;33.20;1.00
2409;DHT22;8463;48.094;7.970;2023-08-21T12:47:05;33.40;1.00
2409;DHT22;8463;48.094;7.970;2023-08-21T12:49:31;33.70;1.00
2409;DHT22;8463;48.094;7.970;2023-08-21T12:51:57;33.90;1.00
2409;DHT22;8463;48.094;7.970;2023-08-21T12:54:28;33.80;1.00
2409;DHT22;8463;48.094;7.970;2023-08-21T12:56:54;33.80;1.00
2409;DHT22;8463;48.094;7.970;2023-08-21T12:59:22;34.00;1.00
2409;DHT22;8463;48.094;7.970;2023-08-21T13:01:53;34.30;1.00
2409;DHT22;8463;48.094;7.970;2023-08-21T13:04:19;34.50;1.00
2409;DHT22;8463;48.094;7.970;2023-08-21T13:06:44;34.50;1.00
2409;DHT22;8463;48.094;7.970;2023-08-21T13:09:19;34.40;1.00
2409;DHT22;8463;48.094;7.970;2023-08-21T13:11:44;34.10;1.00
2409;DHT22;8463;48.094;7.970;2023-08-21T13:14:19;34.10;1.00
2409;DHT22;8463;48.094;7.970;2023-08-21T13:16:45;34.00;1.00
2409;DHT22;8463;48.094;7.970;2023-08-21T13:19:14;33.90;1.00
2409;DHT22;8463;48.094;7.970;2023-08-21T13:21:39;33.90;1.00
2409;DHT22;8463;48.094;7.970;2023-08-21T13:24:05;34.10;1.00
2409;DHT22;8463;48.094;7.970;2023-08-21T13:26:32;34.20;1.00
2409;DHT22;8463;48.094;7.970;2023-08-21T13:28:58;34.20;1.00
2409;DHT22;8463;48.094;7.970;2023-08-21T13:31:23;34.40;1.00
2409;DHT22;8463;48.094;7.970;2023-08-21T13:33:50;34.30;1.00
2409;DHT22;8463;48.094;7.970;2023-08-21T13:36:16;34.00;1.00
2409;DHT22;8463;48.094;7.970;2023-08-21T13:38:43;34.20;1.00
2409;DHT22;8463;48.094;7.970;2023-08-21T13:41:08;34.10;1.00
2409;DHT22;8463;48.094;7.970;2023-08-21T13:43:35;34.20;1.00
2409;DHT22;8463;48.094;7.970;2023-08-21T13:46:01;34.40;1.00
2409;DHT22;8463;48.094;7.970;2023-08-21T13:48:32;34.60;1.00
2409;DHT22;8463;48.094;7.970;2023-08-21T13:50:58;34.60;1.00
2409;DHT22;8463;48.094;7.970;2023-08-21T13:53:24;34.50;1.00
2409;DHT22;8463;48.094;7.970;2023-08-21T13:55:50;34.50;1.00
2409;DHT22;8463;48.094;7.970;2023-08-21T13:58:16;34.80;1.00
2409;DHT22;8463;48.094;7.970;2023-08-21T14:00:42;34.70;1.00
2409;DHT22;8463;48.094;7.970;2023-08-21T14:03:08;34.70;1.00
2409;DHT22;8463;48.094;7.970;2023-08-21T14:05:33;34.70;1.00
2409;DHT22;8463;48.094;7.970;2023-08-21T14:07:59;34.70;1.00
2409;DHT22;8463;48.094;7.970;2023-08-21T14:10:25;34.70;1.00
2409;DHT22;8463;48.094;7.970;2023-08-21T14:12:51;34.70;1.00
2409;DHT22;8463;48.094;7.970;2023-08-21T14:15:17;34.70;1.00
2409;DHT22;8463;48.094;7.970;2023-08-21T14:17:44;34.70;1.00
2409;DHT22;8463;48.094;7.970;2023-08-21T14:20:12;35.10;1.00
2409;DHT22;8463;48.094;7.970;2023-08-21T14:22:40;35.30;1.00
2409;DHT22;8463;48.094;7.970;2023-08-21T14:25:07;35.40;1.00
2409;DHT22;8463;48.094;7.970;2023-08-21T14:27:34;35.80;1.00
2409;DHT22;8463;48.094;7.970;2023-08-21T14:30:00;35.40;1.00
2409;DHT22;8463;48.094;7.970;2023-08-21T14:32:25;35.40;1.00
2409;DHT22;8463;48.094;7.970;2023-08-21T14:34:52;35.00;1.00
2409;DHT22;8463;48.094;7.970;2023-08-21T14:37:23;35.10;1.00
2409;DHT22;8463;48.094;7.970;2023-08-21T14:39:49;35.10;1.00
2409;DHT22;8463;48.094;7.970;2023-08-21T14:42:15;35.40;1.00
2409;DHT22;8463;48.094;7.970;2023-08-21T14:44:41;35.40;1.00
2409;DHT22;8463;48.094;7.970;2023-08-21T14:47:06;35.60;1.00
2409;DHT22;8463;48.094;7.970;2023-08-21T14:49:36;35.30;1.00
2409;DHT22;8463;48.094;7.970;2023-08-21T14:52:02;35.70;1.00
2409;DHT22;8463;48.094;7.970;2023-08-21T14:54:28;35.90;1.00
2409;DHT22;8463;48.094;7.970;2023-08-21T14:56:54;36.10;1.00
2409;DHT22;8463;48.094;7.970;2023-08-21T14:59:20;36.40;1.00
2409;DHT22;8463;48.094;7.970;2023-08-21T15:01:46;36.20;1.00
2409;DHT22;8463;48.094;7.970;2023-08-21T15:04:11;36.10;1.00
2409;DHT22;8463;48.094;7.970;2023-08-21T15:06:41;35.90;1.00
2409;DHT22;8463;48.094;7.970;2023-08-21T15:09:07;35.80;1.00
2409;DHT22;8463;48.094;7.970;2023-08-21T15:11:33;35.20;1.00
2409;DHT22;8463;48.094;7.970;2023-08-21T15:14:01;35.20;1.00
2409;DHT22;8463;48.094;7.970;2023-08-21T15:16:33;35.70;1.00
2409;DHT22;8463;48.094;7.970;2023-08-21T15:19:05;35.60;1.00
2409;DHT22;8463;48.094;7.970;2023-08-21T15:21:30;35.50;1.00
2409;DHT22;8463;48.094;7.970;2023-08-21T15:23:58;35.60;1.00
2409;DHT22;8463;48.094;7.970;2023-08-21T15:26:25;35.30;1.00
2409;DHT22;8463;48.094;7.970;2023-08-21T15:28:51;35.40;1.00
2409;DHT22;8463;48.094;7.970;2023-08-21T15:31:19;35.70;1.00
2409;DHT22;8463;48.094;7.970;2023-08-21T15:33:46;36.10;1.00
2409;DHT22;8463;48.094;7.970;2023-08-21T15:36:13;36.40;1.00
2409;DHT22;8463;48.094;7.970;2023-08-21T15:38:41;36.70;1.00
2409;DHT22;8463;48.094;7.970;2023-08-21T15:41:06;36.50;1.00
2409;DHT22;8463;48.094;7.970;2023-08-21T15:43:33;36.30;1.00
2409;DHT22;8463;48.094;7.970;2023-08-21T15:46:04;36.40;1.00
2409;DHT22;8463;48.094;7.970;2023-08-21T15:48:31;36.50;1.00
2409;DHT22;8463;48.094;7.970;2023-08-21T15:50:56;36.60;1.00
2409;DHT22;8463;48.094;7.970;2023-08-21T15:53:22;36.80;1.00
2409;DHT22;8463;48.094;7.970;2023-08-21T15:55:48;37.00;1.00
2409;DHT22;8463;48.094;7.970;2023-08-21T15:58:13;37.10;1.00
2409;DHT22;8463;48.094;7.970;2023-08-21T16:00:39;37.30;1.00
2409;DHT22;8463;48.094;7.970;2023-08-21T16:03:05;37.40;1.00
2409;DHT22;8463;48.094;7.970;2023-08-21T16:05:34;37.40;1.00
2409;DHT22;8463;48.094;7.970;2023-08-21T16:07:59;37.20;1.00
2409;DHT22;8463;48.094;7.970;2023-08-21T16:10:27;37.10;1.00
2409;DHT22;8463;48.094;7.970;2023-08-21T16:12:53;37.00;1.00
2409;DHT22;8463;48.094;7.970;2023-08-21T16:15:24;36.90;1.00
2409;DHT22;8463;48.094;7.970;2023-08-21T16:17:50;36.80;1.00
2409;DHT22;8463;48.094;7.970;2023-08-21T16:20:17;36.70;1.00
2409;DHT22;8463;48.094;7.970;2023-08-21T16:22:43;36.60;1.00
2409;DHT22;8463;48.094;7.970;2023-08-21T16:25:09;36.60;1.00
2409;DHT22;8463;48.094;7.970;2023-08-21T16:27:38;36.40;1.00
2409;DHT22;8463;48.094;7.970;2023-08-21T16:30:05;36.30;1.00
2409;DHT22;8463;48.094;7.970;2023-08-21T16:32:30;36.00;1.00
2409;DHT22;8463;48.094;7.970;2023-08-21T16:34:56;35.90;1.00
2409;DHT22;8463;48.094;7.970;2023-08-21T16:37:24;35.90;1.00
2409;DHT22;8463;48.094;7.970;2023-08-21T16:39:50;35.60;1.00
2409;DHT22;8463;48.094;7.970;2023-08-21T16:42:16;35.20;1.00
2409;DHT22;8463;48.094;7.970;2023-08-21T16:44:42;35.00;1.00
2409;DHT22;8463;48.094;7.970;2023-08-21T16:47:07;34.80;1.00
2409;DHT22;8463;48.094;7.970;2023-08-21T16:49:35;34.80;1.00
2409;DHT22;8463;48.094;7.970;2023-08-21T16:52:02;34.40;1.00
2409;DHT22;8463;48.094;7.970;2023-08-21T16:54:33;34.10;1.00
2409;DHT22;8463;48.094;7.970;2023-08-21T16:56:58;34.10;1.00
2409;DHT22;8463;48.094;7.970;2023-08-21T16:59:24;34.00;1.00
2409;DHT22;8463;48.094;7.970;2023-08-21T17:01:50;34.00;1.00
2409;DHT22;8463;48.094;7.970;2023-08-21T17:04:17;33.90;1.00
2409;DHT22;8463;48.094;7.970;2023-08-21T17:06:43;33.80;1.00
2409;DHT22;8463;48.094;7.970;2023-08-21T17:09:08;33.50;1.00